Time;durP1;ratioP1;P1;durP2;ratioP2;P2;SDS_P1;SDS_P2;PMS_P1;PMS_P2;Temp;Humidity;BMP_temperature;BMP_pressure;BME280_temperature;BME280_humidity;BME280_pressure;Samples;Min_cycle;Max_cycle;Signal;HPM_P1;HPM_P2
2022/10/18 00:00:07;;;;;;;37.92;21.33;;;13.20;99.90;;;;;;4978321;28;90647;-32
2022/10/18 00:02:32;;;;;;;26.35;20.17;;;13.20;99.90;;;;;;4978622;28;89275;-32
2022/10/18 00:04:58;;;;;;;30.30;21.25;;;13.10;99.90;;;;;;4977966;28;89495;-33
2022/10/18 00:07:23;;;;;;;25.33;19.85;;;13.10;99.90;;;;;;4978630;28;90046;-30
2022/10/18 00:09:49;;;;;;;32.22;21.38;;;13.10;99.90;;;;;;4977529;28;90613;-31
2022/10/18 00:12:15;;;;;;;37.00;21.27;;;13.10;99.90;;;;;;4978849;28;89930;-32
2022/10/18 00:14:40;;;;;;;27.15;19.48;;;13.00;99.90;;;;;;4977660;28;89625;-32
2022/10/18 00:17:06;;;;;;;31.33;21.25;;;13.00;99.90;;;;;;4978867;28;89445;-30
2022/10/18 00:19:31;;;;;;;24.35;20.95;;;13.00;99.90;;;;;;4978137;28;90272;-30
2022/10/18 00:21:57;;;;;;;24.23;19.67;;;13.00;99.90;;;;;;4978049;28;89551;-31
2022/10/18 00:24:22;;;;;;;56.35;26.13;;;13.00;99.90;;;;;;4978600;28;89661;-31
2022/10/18 00:26:48;;;;;;;55.58;22.10;;;13.00;99.90;;;;;;4977628;28;88376;-32
2022/10/18 00:29:15;;;;;;;107.20;31.52;;;13.00;99.90;;;;;;4978346;28;90097;-32
2022/10/18 00:31:42;;;;;;;61.25;25.15;;;13.10;99.90;;;;;;4977446;28;90713;-32
2022/10/18 00:34:13;;;;;;;21.70;18.88;;;13.10;99.90;;;;;;4977692;28;88536;-31
2022/10/18 00:36:39;;;;;;;41.72;21.58;;;13.10;99.90;;;;;;4977793;28;87697;-31
2022/10/18 00:39:06;;;;;;;34.17;20.88;;;13.10;99.90;;;;;;4978255;28;90182;-34
2022/10/18 00:41:33;;;;;;;41.03;21.65;;;13.10;99.90;;;;;;4977938;28;90217;-32
2022/10/18 00:44:02;;;;;;;40.65;22.35;;;13.10;99.90;;;;;;4977263;28;90268;-33
2022/10/18 00:46:33;;;;;;;47.88;24.58;;;13.10;99.90;;;;;;4978112;28;88579;-33
2022/10/18 00:49:02;;;;;;;33.20;20.48;;;13.00;99.90;;;;;;4980608;28;90771;-34
2022/10/18 00:51:38;;;;;;;21.20;17.80;;;13.00;99.90;;;;;;4980869;28;89555;-29
2022/10/18 00:54:04;;;;;;;28.42;19.60;;;13.00;99.90;;;;;;4980903;28;89346;-32
2022/10/18 00:56:32;;;;;;;24.73;19.10;;;13.00;99.90;;;;;;5013994;22;88645;-34
2022/10/18 00:58:58;;;;;;;22.95;18.25;;;13.00;99.90;;;;;;4980949;28;90893;-33
2022/10/18 01:01:23;;;;;;;49.20;21.85;;;13.00;99.90;;;;;;4980865;28;89389;-31
2022/10/18 01:03:50;;;;;;;54.90;20.95;;;13.00;99.90;;;;;;4981793;28;89791;-31
2022/10/18 01:06:15;;;;;;;20.85;17.88;;;13.00;99.90;;;;;;4980928;28;90513;-31
2022/10/18 01:08:54;;;;;;;25.17;18.55;;;13.00;99.90;;;;;;4981062;28;90411;-32
2022/10/18 01:11:41;;;;;;;20.13;16.02;;;13.00;99.90;;;;;;4981269;28;89067;-32
2022/10/18 01:14:38;;;;;;;34.05;17.20;;;13.00;99.90;;;;;;4981488;28;89730;-32
2022/10/18 01:17:12;;;;;;;32.63;21.13;;;13.00;99.90;;;;;;4981297;28;87647;-32
2022/10/18 01:20:15;;;;;;;31.10;20.20;;;13.00;99.90;;;;;;4980806;28;90289;-31
2022/10/18 01:23:20;;;;;;;20.27;17.85;;;13.00;99.90;;;;;;4980392;28;90103;-32
2022/10/18 01:25:54;;;;;;;20.42;17.63;;;13.00;99.90;;;;;;4967246;28;90629;-31
2022/10/18 01:28:50;;;;;;;40.08;19.58;;;13.00;99.90;;;;;;4981242;28;90136;-32
2022/10/18 01:31:27;;;;;;;42.63;20.90;;;13.00;99.90;;;;;;4969687;28;90004;-32
2022/10/18 01:34:03;;;;;;;54.70;22.92;;;13.00;99.90;;;;;;4979698;28;90638;-33
2022/10/18 01:36:35;;;;;;;39.03;19.23;;;13.00;99.90;;;;;;4980250;28;90585;-33
2022/10/18 01:39:06;;;;;;;27.02;20.63;;;13.00;99.90;;;;;;4980563;28;88828;-34
2022/10/18 01:41:34;;;;;;;75.68;27.33;;;13.00;99.90;;;;;;4981138;28;90200;-31
2022/10/18 01:44:01;;;;;;;44.45;23.48;;;13.10;99.90;;;;;;4980210;28;90722;-33
2022/10/18 01:46:28;;;;;;;48.80;25.33;;;13.10;99.90;;;;;;4979616;28;89613;-32
2022/10/18 01:48:55;;;;;;;43.75;23.73;;;13.00;99.90;;;;;;4980389;28;89119;-35
2022/10/18 01:51:29;;;;;;;40.20;21.55;;;13.00;99.90;;;;;;4980634;28;90002;-33
2022/10/18 01:53:55;;;;;;;78.40;27.90;;;13.00;99.90;;;;;;4979306;28;89869;-32
2022/10/18 01:56:43;;;;;;;23.27;19.33;;;13.00;99.90;;;;;;4979799;28;89485;-33
2022/10/18 01:59:43;;;;;;;30.95;20.88;;;13.00;99.90;;;;;;4980186;28;90821;-31
2022/10/18 02:02:50;;;;;;;53.97;24.98;;;13.00;99.90;;;;;;4946760;28;90408;-30
2022/10/18 02:05:34;;;;;;;60.53;26.77;;;13.00;99.90;;;;;;4956555;28;89832;-34
2022/10/18 02:08:27;;;;;;;62.17;27.92;;;13.00;99.90;;;;;;4977942;28;89714;-32
2022/10/18 02:11:01;;;;;;;75.22;28.05;;;13.00;99.90;;;;;;4967707;28;89428;-31
2022/10/18 02:13:34;;;;;;;35.83;20.45;;;13.00;99.90;;;;;;4979909;28;90938;-33
2022/10/18 02:16:09;;;;;;;88.35;26.40;;;13.00;99.90;;;;;;4979919;28;89352;-34
2022/10/18 02:19:10;;;;;;;53.38;26.27;;;13.00;99.90;;;;;;4980238;28;89277;-34
2022/10/18 02:21:38;;;;;;;77.85;28.95;;;13.00;99.90;;;;;;4949520;28;89529;-32
2022/10/18 02:24:05;;;;;;;28.95;22.35;;;13.00;99.90;;;;;;4980202;28;91273;-32
2022/10/18 02:26:31;;;;;;;80.50;28.48;;;13.00;99.90;;;;;;4979000;28;90443;-31
2022/10/18 02:28:57;;;;;;;114.13;35.17;;;13.00;99.90;;;;;;4979784;28;90623;-34
2022/10/18 02:31:34;;;;;;;55.45;22.85;;;13.00;99.90;;;;;;4980479;28;89395;-31
2022/10/18 02:34:06;;;;;;;57.67;24.02;;;13.00;99.90;;;;;;4979114;28;90203;-34
2022/10/18 02:36:34;;;;;;;61.95;22.10;;;13.00;99.90;;;;;;4980703;28;89676;-31
2022/10/18 02:39:06;;;;;;;30.08;19.13;;;13.00;99.90;;;;;;4979220;28;89251;-33
2022/10/18 02:41:32;;;;;;;59.42;25.20;;;12.90;99.90;;;;;;4980111;28;89243;-29
2022/10/18 02:43:58;;;;;;;38.97;20.30;;;12.90;99.90;;;;;;4979081;28;90053;-32
2022/10/18 02:46:24;;;;;;;39.10;21.23;;;12.90;99.90;;;;;;4979766;28;88610;-32
2022/10/18 02:48:49;;;;;;;27.02;20.70;;;12.90;99.90;;;;;;4979475;28;89694;-33
2022/10/18 02:51:15;;;;;;;29.92;19.15;;;12.80;99.90;;;;;;4978919;28;90989;-33
2022/10/18 02:53:41;;;;;;;46.97;24.30;;;12.80;99.90;;;;;;4978939;28;90161;-33
2022/10/18 02:56:07;;;;;;;45.78;23.30;;;12.80;99.90;;;;;;4979184;28;89941;-31
2022/10/18 02:58:33;;;;;;;26.83;19.02;;;12.80;99.90;;;;;;4979390;28;89141;-30
2022/10/18 03:00:58;;;;;;;23.45;17.33;;;12.80;99.90;;;;;;4979328;28;90365;-30
2022/10/18 03:03:24;;;;;;;78.47;29.13;;;12.80;99.90;;;;;;4979498;28;90377;-32
2022/10/18 03:05:51;;;;;;;34.78;19.50;;;12.70;99.90;;;;;;4978968;28;89774;-32
2022/10/18 03:08:17;;;;;;;85.43;29.75;;;12.70;99.90;;;;;;4979580;28;90202;-31
2022/10/18 03:10:44;;;;;;;55.90;25.52;;;12.70;99.90;;;;;;4979175;28;88503;-31
2022/10/18 03:13:10;;;;;;;31.83;19.67;;;12.70;99.90;;;;;;4979440;28;90533;-31
2022/10/18 03:15:35;;;;;;;24.85;18.65;;;12.70;99.90;;;;;;4978395;28;92076;-29
2022/10/18 03:18:01;;;;;;;30.33;17.67;;;12.70;99.90;;;;;;4978330;28;88936;-32
2022/10/18 03:20:27;;;;;;;28.35;18.55;;;12.70;99.90;;;;;;4979511;28;89180;-31
2022/10/18 03:22:52;;;;;;;55.10;25.05;;;12.60;99.90;;;;;;4978579;28;90728;-33
2022/10/18 03:25:18;;;;;;;25.08;16.17;;;12.60;99.90;;;;;;4978901;28;91328;-32
2022/10/18 03:27:43;;;;;;;69.93;28.00;;;12.60;99.90;;;;;;4978168;28;89581;-32
2022/10/18 03:30:10;;;;;;;57.83;19.25;;;12.60;99.90;;;;;;4979249;28;88919;-35
2022/10/18 03:32:37;;;;;;;23.55;17.75;;;12.60;99.90;;;;;;4978996;28;90443;-33
2022/10/18 03:35:04;;;;;;;100.03;30.30;;;12.60;99.90;;;;;;4978350;28;88702;-34
2022/10/18 03:37:30;;;;;;;41.03;21.95;;;12.50;99.90;;;;;;4979251;28;89552;-33
2022/10/18 03:39:55;;;;;;;68.68;25.75;;;12.60;99.90;;;;;;4977844;28;89655;-35
2022/10/18 03:42:21;;;;;;;30.77;19.83;;;12.60;99.90;;;;;;4978986;28;90261;-34
2022/10/18 03:44:47;;;;;;;40.03;23.05;;;12.60;99.90;;;;;;4978765;28;89849;-32
2022/10/18 03:47:13;;;;;;;69.97;26.92;;;12.60;99.90;;;;;;4978153;28;89492;-32
2022/10/18 03:49:38;;;;;;;50.63;22.85;;;12.60;99.90;;;;;;4979313;28;87605;-33
2022/10/18 03:52:04;;;;;;;30.95;21.17;;;12.60;99.90;;;;;;4977848;28;91895;-33
2022/10/18 03:54:29;;;;;;;32.78;20.98;;;12.50;99.90;;;;;;4978885;28;90934;-35
2022/10/18 03:56:55;;;;;;;31.00;19.58;;;12.50;99.90;;;;;;4978206;28;89699;-32
2022/10/18 03:59:21;;;;;;;33.20;20.15;;;12.50;99.90;;;;;;4978995;28;89794;-31
2022/10/18 04:01:47;;;;;;;33.30;21.40;;;12.50;99.90;;;;;;4978620;28;90061;-33
2022/10/18 04:04:13;;;;;;;35.67;20.90;;;12.50;99.90;;;;;;4977311;28;91703;-34
2022/10/18 04:06:39;;;;;;;27.38;19.75;;;12.50;99.90;;;;;;4978367;28;90478;-32
2022/10/18 04:09:04;;;;;;;25.85;18.27;;;12.50;99.90;;;;;;4978286;28;88341;-32
2022/10/18 04:11:30;;;;;;;40.15;21.05;;;12.40;99.90;;;;;;4978292;28;90280;-33
2022/10/18 04:13:56;;;;;;;38.53;20.10;;;12.40;99.90;;;;;;4978240;28;89646;-32
2022/10/18 04:16:21;;;;;;;40.05;22.33;;;12.40;99.90;;;;;;4978607;28;89283;-32
2022/10/18 04:18:47;;;;;;;48.88;23.90;;;12.40;99.90;;;;;;4978703;28;89815;-34
2022/10/18 04:21:13;;;;;;;26.48;18.55;;;12.40;99.90;;;;;;4978158;28;90170;-31
2022/10/18 04:23:38;;;;;;;20.52;17.50;;;12.40;99.90;;;;;;4980828;28;90324;-33
2022/10/18 04:26:04;;;;;;;38.45;19.95;;;12.40;99.90;;;;;;4981593;28;89652;-33
2022/10/18 04:28:30;;;;;;;21.17;15.55;;;12.40;99.90;;;;;;4980870;28;90639;-35
2022/10/18 04:30:56;;;;;;;68.68;26.88;;;12.30;99.90;;;;;;4981676;28;88573;-31
2022/10/18 04:33:22;;;;;;;23.23;17.45;;;12.30;99.90;;;;;;4963276;28;89469;-32
2022/10/18 04:35:50;;;;;;;22.95;16.50;;;12.30;99.90;;;;;;4981799;28;89553;-34
2022/10/18 04:38:16;;;;;;;29.75;17.90;;;12.30;99.90;;;;;;4981796;28;88383;-34
2022/10/18 04:40:41;;;;;;;23.05;17.17;;;12.30;99.90;;;;;;4981211;28;90666;-34
2022/10/18 04:43:07;;;;;;;54.90;23.10;;;12.30;99.90;;;;;;4981237;28;88512;-35
2022/10/18 04:45:33;;;;;;;23.90;18.98;;;12.30;99.90;;;;;;4981099;28;89772;-34
2022/10/18 04:47:58;;;;;;;41.10;21.73;;;12.30;99.90;;;;;;4980883;28;89654;-35
2022/10/18 04:50:24;;;;;;;26.20;14.55;;;12.30;99.90;;;;;;4981647;28;90663;-30
2022/10/18 04:52:50;;;;;;;28.58;16.50;;;12.30;99.90;;;;;;4980383;28;89546;-33
2022/10/18 04:55:15;;;;;;;32.22;19.10;;;12.30;99.90;;;;;;4981136;28;89663;-33
2022/10/18 04:57:41;;;;;;;42.55;18.00;;;12.30;99.90;;;;;;4980145;28;89089;-32
2022/10/18 05:00:07;;;;;;;42.72;19.95;;;12.30;99.90;;;;;;4981601;28;90274;-35
2022/10/18 05:02:32;;;;;;;34.28;18.20;;;12.30;99.90;;;;;;4980869;28;90885;-33
2022/10/18 05:04:58;;;;;;;42.35;21.45;;;12.30;99.90;;;;;;4980594;28;89606;-33
2022/10/18 05:07:24;;;;;;;28.17;17.05;;;12.30;99.90;;;;;;4981373;28;89711;-32
2022/10/18 05:09:49;;;;;;;53.72;22.00;;;12.20;99.90;;;;;;4980086;28;90511;-34
2022/10/18 05:12:15;;;;;;;36.78;20.13;;;12.20;99.90;;;;;;4980658;28;89760;-32
2022/10/18 05:14:40;;;;;;;25.35;17.98;;;12.30;99.90;;;;;;4961613;28;90472;-33
2022/10/18 05:17:06;;;;;;;33.75;17.60;;;12.30;99.90;;;;;;4962913;28;89704;-33
2022/10/18 05:19:32;;;;;;;24.83;17.35;;;12.20;99.90;;;;;;4980954;28;90106;-32
2022/10/18 05:21:57;;;;;;;20.70;15.52;;;12.20;99.90;;;;;;4980461;28;89987;-33
2022/10/18 05:24:23;;;;;;;31.95;20.30;;;12.20;99.90;;;;;;4981303;28;89832;-35
2022/10/18 05:26:48;;;;;;;32.90;19.73;;;12.20;99.90;;;;;;4980110;28;89358;-34
2022/10/18 05:29:14;;;;;;;23.98;17.83;;;12.20;99.90;;;;;;4981586;28;90522;-34
2022/10/18 05:31:39;;;;;;;31.73;17.20;;;12.20;99.90;;;;;;4980612;28;90282;-33
2022/10/18 05:34:05;;;;;;;46.08;22.60;;;12.10;99.90;;;;;;4979525;28;89551;-33
2022/10/18 05:36:31;;;;;;;19.05;15.60;;;12.10;99.90;;;;;;4980767;28;89408;-32
2022/10/18 05:38:56;;;;;;;22.25;14.15;;;12.20;99.90;;;;;;4980291;28;88954;-34
2022/10/18 05:41:22;;;;;;;26.85;15.90;;;12.10;99.90;;;;;;4980519;28;90893;-34
2022/10/18 05:43:48;;;;;;;30.63;15.85;;;12.00;99.90;;;;;;4979487;28;89523;-32
2022/10/18 05:46:13;;;;;;;30.52;16.20;;;12.10;99.90;;;;;;4980944;28;89255;-34
2022/10/18 05:48:39;;;;;;;27.60;16.48;;;12.00;99.90;;;;;;4980303;28;90914;-34
2022/10/18 05:51:04;;;;;;;19.02;16.92;;;12.00;99.90;;;;;;4980512;28;90159;-33
2022/10/18 05:53:30;;;;;;;16.63;13.35;;;11.90;99.90;;;;;;4980577;28;91483;-33
2022/10/18 05:56:00;;;;;;;19.13;15.32;;;11.90;99.90;;;;;;4979848;28;89105;-31
2022/10/18 05:58:25;;;;;;;21.10;12.23;;;11.80;99.90;;;;;;4979802;28;90368;-34
2022/10/18 06:00:51;;;;;;;16.65;13.40;;;11.90;99.90;;;;;;4980608;28;89765;-32
2022/10/18 06:03:17;;;;;;;22.73;16.15;;;11.80;99.90;;;;;;4979940;28;89607;-34
2022/10/18 06:05:43;;;;;;;15.10;13.50;;;11.80;99.90;;;;;;4979786;28;88689;-33
2022/10/18 06:08:08;;;;;;;23.67;15.20;;;11.80;99.90;;;;;;4980247;28;90101;-31
2022/10/18 06:10:37;;;;;;;14.75;13.27;;;11.80;99.90;;;;;;4979665;28;89757;-35
2022/10/18 06:13:02;;;;;;;15.75;13.23;;;11.80;99.90;;;;;;4979658;28;89484;-35
2022/10/18 06:15:28;;;;;;;27.75;13.88;;;11.80;99.90;;;;;;4980219;28;89589;-32
2022/10/18 06:17:53;;;;;;;25.10;12.55;;;11.80;99.90;;;;;;4979344;28;90628;-35
2022/10/18 06:20:19;;;;;;;23.52;14.07;;;11.80;99.90;;;;;;4980226;28;89631;-33
2022/10/18 06:22:44;;;;;;;20.42;13.55;;;11.80;99.90;;;;;;4979620;28;88513;-34
2022/10/18 06:25:10;;;;;;;30.50;13.98;;;11.80;99.90;;;;;;4979340;28;89521;-33
2022/10/18 06:27:36;;;;;;;17.02;13.23;;;11.80;99.90;;;;;;4978001;28;90239;-32
2022/10/18 06:30:02;;;;;;;31.02;15.60;;;11.80;99.90;;;;;;4977103;28;90448;-35
2022/10/18 06:32:27;;;;;;;16.58;11.73;;;11.70;99.90;;;;;;4976636;28;90481;-33
2022/10/18 06:34:53;;;;;;;24.33;13.07;;;11.70;99.90;;;;;;4976804;28;89751;-35
2022/10/18 06:37:18;;;;;;;12.68;11.25;;;11.70;99.90;;;;;;4977810;28;90243;-32
2022/10/18 06:39:44;;;;;;;18.73;10.73;;;11.60;99.90;;;;;;4976876;28;89330;-32
2022/10/18 06:42:09;;;;;;;17.63;12.25;;;11.60;99.90;;;;;;4976352;28;90335;-33
2022/10/18 06:44:35;;;;;;;11.60;10.40;;;11.60;99.90;;;;;;4977255;28;90045;-33
2022/10/18 06:47:00;;;;;;;18.40;12.40;;;11.60;99.90;;;;;;4977170;28;89611;-34
2022/10/18 06:49:26;;;;;;;18.25;10.60;;;11.60;99.90;;;;;;4977544;28;89824;-32
2022/10/18 06:51:53;;;;;;;19.67;12.07;;;11.50;99.90;;;;;;4976832;28;89183;-32
2022/10/18 06:54:18;;;;;;;20.10;11.60;;;11.50;99.90;;;;;;4976840;28;89186;-33
2022/10/18 06:56:44;;;;;;;12.20;10.95;;;11.50;99.90;;;;;;4975901;28;89883;-33
2022/10/18 06:59:09;;;;;;;14.52;10.55;;;11.50;99.90;;;;;;4977846;28;89657;-31
2022/10/18 07:01:35;;;;;;;18.20;12.48;;;11.50;99.90;;;;;;4976908;28;89282;-34
2022/10/18 07:04:01;;;;;;;11.40;10.20;;;11.40;99.90;;;;;;4976823;28;89260;-34
2022/10/18 07:06:26;;;;;;;11.05;9.98;;;11.50;99.90;;;;;;4977315;28;89523;-32
2022/10/18 07:08:53;;;;;;;13.18;10.07;;;11.50;99.90;;;;;;4976012;28;89864;-33
2022/10/18 07:11:24;;;;;;;10.68;9.52;;;11.50;99.90;;;;;;4977572;28;89741;-35
2022/10/18 07:13:52;;;;;;;13.30;9.73;;;11.50;99.90;;;;;;4977489;28;88201;-33
2022/10/18 07:16:18;;;;;;;13.52;10.90;;;11.50;99.90;;;;;;4977410;28;90483;-32
2022/10/18 07:18:48;;;;;;;11.98;9.98;;;11.60;99.90;;;;;;4976041;28;90762;-33
2022/10/18 07:21:15;;;;;;;13.48;12.00;;;11.60;99.90;;;;;;4977254;28;90081;-32
2022/10/18 07:23:42;;;;;;;15.27;12.10;;;11.60;99.90;;;;;;4976276;28;90244;-33
2022/10/18 07:26:13;;;;;;;11.80;10.10;;;11.60;99.90;;;;;;4958233;28;90846;-32
2022/10/18 07:28:39;;;;;;;11.10;10.00;;;11.70;99.90;;;;;;4976127;28;89831;-35
2022/10/18 07:31:07;;;;;;;12.20;10.60;;;11.70;99.90;;;;;;4977096;28;89576;-35
2022/10/18 07:33:34;;;;;;;24.83;16.50;;;11.70;99.90;;;;;;4977190;28;90408;-31
2022/10/18 07:36:02;;;;;;;11.80;10.60;;;11.70;99.90;;;;;;4976634;28;90332;-33
2022/10/18 07:38:28;;;;;;;14.00;10.13;;;11.80;99.90;;;;;;4976038;28;88877;-34
2022/10/18 07:40:58;;;;;;;12.90;11.15;;;11.80;99.90;;;;;;4976582;28;90262;-32
2022/10/18 07:43:23;;;;;;;11.05;9.95;;;11.80;99.90;;;;;;4976335;28;90312;-33
2022/10/18 07:45:53;;;;;;;10.07;9.07;;;11.90;99.90;;;;;;4977300;28;90264;-35
2022/10/18 07:48:19;;;;;;;10.07;9.07;;;11.90;99.90;;;;;;4977026;28;89468;-33
2022/10/18 07:50:45;;;;;;;10.20;8.98;;;11.90;99.90;;;;;;4977026;28;89423;-34
2022/10/18 07:53:10;;;;;;;10.95;9.60;;;12.00;99.90;;;;;;4977205;28;88220;-34
2022/10/18 07:55:36;;;;;;;9.05;8.25;;;12.00;99.90;;;;;;4977100;28;90299;-32
2022/10/18 07:58:01;;;;;;;10.13;9.13;;;12.00;99.90;;;;;;4975802;28;89743;-31
2022/10/18 08:00:27;;;;;;;13.07;9.10;;;12.10;99.90;;;;;;4976999;28;90183;-33
2022/10/18 08:02:57;;;;;;;8.68;7.80;;;12.10;99.90;;;;;;4976799;28;89119;-32
2022/10/18 08:05:24;;;;;;;10.85;7.95;;;12.10;99.90;;;;;;4977276;28;90277;-31
2022/10/18 08:07:50;;;;;;;11.38;10.27;;;12.10;99.90;;;;;;4958064;28;90360;-35
2022/10/18 08:10:15;;;;;;;9.20;8.30;;;12.20;99.90;;;;;;4976491;28;90718;-35
2022/10/18 08:12:41;;;;;;;11.45;9.75;;;12.20;99.90;;;;;;4976647;28;89511;-32
2022/10/18 08:15:07;;;;;;;9.60;8.70;;;12.30;99.90;;;;;;4976601;28;90395;-32
2022/10/18 08:17:33;;;;;;;8.85;8.02;;;12.30;99.90;;;;;;4977349;28;90445;-33
2022/10/18 08:19:59;;;;;;;9.23;8.32;;;12.30;99.90;;;;;;4976553;28;90180;-33
2022/10/18 08:22:25;;;;;;;11.00;9.90;;;12.40;99.90;;;;;;4977195;28;89539;-35
2022/10/18 08:24:50;;;;;;;9.05;8.15;;;12.50;99.90;;;;;;4976392;28;90105;-33
2022/10/18 08:27:16;;;;;;;11.85;7.90;;;12.60;99.90;;;;;;4976144;28;89872;-31
2022/10/18 08:29:41;;;;;;;13.98;8.77;;;12.60;99.90;;;;;;4976537;28;90300;-32
2022/10/18 08:32:07;;;;;;;12.60;9.77;;;12.60;99.90;;;;;;4976372;28;89244;-32
2022/10/18 08:34:34;;;;;;;10.73;9.45;;;12.60;99.90;;;;;;4976758;28;89693;-34
2022/10/18 08:36:59;;;;;;;11.27;8.75;;;12.70;99.90;;;;;;4976340;28;89960;-34
2022/10/18 08:39:25;;;;;;;11.27;9.73;;;12.80;99.90;;;;;;4976628;28;90302;-33
2022/10/18 08:41:59;;;;;;;11.65;8.98;;;12.90;99.90;;;;;;4976326;28;88816;-33
2022/10/18 08:44:29;;;;;;;12.25;9.25;;;12.90;99.90;;;;;;4976253;28;90204;-34
2022/10/18 08:47:02;;;;;;;11.68;10.57;;;12.90;99.90;;;;;;4975478;28;89707;-33
2022/10/18 08:49:45;;;;;;;8.68;7.78;;;13.10;99.90;;;;;;4976104;28;89367;-33
2022/10/18 08:52:28;;;;;;;13.80;9.57;;;13.20;99.90;;;;;;4976375;28;89397;-35
2022/10/18 08:55:03;;;;;;;12.07;9.50;;;13.30;99.90;;;;;;4976219;28;90494;-33
2022/10/18 08:57:30;;;;;;;14.15;11.30;;;13.30;99.90;;;;;;4975213;28;90488;-33
2022/10/18 08:59:56;;;;;;;9.80;8.90;;;13.40;99.90;;;;;;4975663;28;91063;-33
2022/10/18 09:02:21;;;;;;;10.70;8.27;;;13.40;99.90;;;;;;4976009;28;88237;-33
2022/10/18 09:04:47;;;;;;;13.02;9.32;;;13.50;99.90;;;;;;4975366;28;90115;-32
2022/10/18 09:07:53;;;;;;;12.45;8.30;;;13.50;99.90;;;;;;4975995;28;89627;-33
2022/10/18 09:10:38;;;;;;;9.95;8.80;;;13.70;99.90;;;;;;4980021;28;90843;-32
2022/10/18 09:13:36;;;;;;;13.88;9.20;;;13.80;99.90;;;;;;4979402;28;89433;-35
2022/10/18 09:16:05;;;;;;;11.40;8.93;;;13.80;99.90;;;;;;4979078;28;90186;-33
2022/10/18 09:18:49;;;;;;;15.48;9.48;;;13.80;99.90;;;;;;4979230;28;89606;-33
2022/10/18 09:21:22;;;;;;;9.18;8.27;;;13.80;99.90;;;;;;4980580;28;89689;-31
2022/10/18 09:24:02;;;;;;;9.50;7.57;;;14.00;99.90;;;;;;4979340;28;90146;-34
2022/10/18 09:26:39;;;;;;;8.88;8.02;;;14.00;99.90;;;;;;4978614;28;90079;-35
2022/10/18 09:29:29;;;;;;;10.27;9.18;;;14.10;99.90;;;;;;4979563;28;89699;-32
2022/10/18 09:32:09;;;;;;;12.07;7.03;;;14.20;99.90;;;;;;4978989;28;89861;-35
2022/10/18 09:34:45;;;;;;;15.85;7.97;;;14.30;99.90;;;;;;4979235;28;90504;-33
2022/10/18 09:37:14;;;;;;;17.40;7.25;;;14.30;99.90;;;;;;4979415;28;90550;-32
2022/10/18 09:39:41;;;;;;;13.02;9.10;;;14.40;99.90;;;;;;4978429;28;90301;-34
2022/10/18 09:42:33;;;;;;;7.70;6.90;;;14.50;99.90;;;;;;4978660;28;89710;-34
2022/10/18 09:45:15;;;;;;;8.32;7.53;;;14.50;99.90;;;;;;4979535;28;89848;-32
2022/10/18 09:48:10;;;;;;;10.85;7.43;;;14.50;99.90;;;;;;4978391;28;90177;-32
2022/10/18 09:50:47;;;;;;;10.73;6.43;;;14.60;99.90;;;;;;4978703;28;90460;-35
2022/10/18 09:53:34;;;;;;;11.43;7.13;;;14.60;99.90;;;;;;4978922;28;90803;-33
2022/10/18 09:56:02;;;;;;;11.95;6.93;;;14.60;99.90;;;;;;4978775;28;89132;-34
2022/10/18 09:58:38;;;;;;;;;;;14.70;99.90;;;;;;4978845;28;90478;-34
2022/10/18 10:01:04;;;;;;;8.48;6.18;;;14.80;99.90;;;;;;4979690;28;90237;-33
2022/10/18 10:03:30;;;;;;;12.38;6.35;;;14.80;99.90;;;;;;4978865;28;89116;-33
2022/10/18 10:06:11;;;;;;;10.10;5.22;;;14.80;99.90;;;;;;4978727;28;90456;-33
2022/10/18 10:08:40;;;;;;;8.27;5.38;;;14.90;99.90;;;;;;4978434;28;89041;-36
2022/10/18 10:11:33;;;;;;;7.18;5.47;;;14.90;99.90;;;;;;4978541;28;91326;-35
2022/10/18 10:14:15;;;;;;;13.73;5.38;;;15.00;99.90;;;;;;4977829;28;89479;-35
2022/10/18 10:17:02;;;;;;;11.35;5.53;;;14.90;99.90;;;;;;4977657;28;89343;-33
2022/10/18 10:19:34;;;;;;;11.63;6.00;;;14.90;99.90;;;;;;4978302;28;90523;-34
2022/10/18 10:22:11;;;;;;;8.00;6.13;;;14.90;99.90;;;;;;4977923;28;90130;-34
2022/10/18 10:24:49;;;;;;;16.52;5.30;;;14.90;99.90;;;;;;4978032;28;89378;-31
2022/10/18 10:27:28;;;;;;;16.40;6.95;;;14.90;99.90;;;;;;4978156;28;89112;-34
2022/10/18 10:29:56;;;;;;;9.88;5.63;;;15.00;99.90;;;;;;4977481;28;90297;-35
2022/10/18 10:32:25;;;;;;;13.32;6.28;;;15.00;99.90;;;;;;4977884;28;89668;-34
2022/10/18 10:34:51;;;;;;;26.35;10.75;;;15.00;99.90;;;;;;4978550;28;88812;-35
2022/10/18 10:37:23;;;;;;;11.00;7.30;;;15.10;99.90;;;;;;4978202;28;88780;-35
2022/10/18 10:40:13;;;;;;;7.90;4.63;;;15.10;99.90;;;;;;4977527;28;90860;-34
2022/10/18 10:43:24;;;;;;;10.93;5.53;;;15.20;99.90;;;;;;4970402;28;90856;-34
2022/10/18 10:46:04;;;;;;;15.27;7.15;;;15.30;99.90;;;;;;4967885;28;90536;-35
2022/10/18 10:48:33;;;;;;;5.97;3.97;;;15.30;99.90;;;;;;4978104;28;89382;-35
2022/10/18 10:51:07;;;;;;;12.82;5.47;;;15.40;99.90;;;;;;4977758;28;90414;-36
2022/10/18 10:54:00;;;;;;;12.43;4.82;;;15.50;99.90;;;;;;4977537;28;89874;-36
2022/10/18 10:56:28;;;;;;;6.90;4.85;;;15.60;99.90;;;;;;4977487;28;89619;-33
2022/10/18 10:58:54;;;;;;;;;;;15.50;99.90;;;;;;4978618;28;89297;-33
2022/10/18 11:01:24;;;;;;;8.13;3.22;;;15.60;99.90;;;;;;4980324;28;90118;-33
2022/10/18 11:03:54;;;;;;;10.25;3.47;;;15.70;99.90;;;;;;4977582;28;89549;-34
2022/10/18 11:06:38;;;;;;;5.68;3.92;;;15.80;99.90;;;;;;4978139;28;89953;-35
2022/10/18 11:09:12;;;;;;;10.15;3.83;;;15.80;99.90;;;;;;4976925;28;90098;-36
2022/10/18 11:11:45;;;;;;;7.97;3.47;;;15.90;99.90;;;;;;4978801;28;90090;-34
2022/10/18 11:14:25;;;;;;;8.52;4.13;;;16.00;99.90;;;;;;4959375;28;89530;-34
2022/10/18 11:16:54;;;;;;;10.75;4.10;;;16.10;99.90;;;;;;4963699;28;90103;-33
2022/10/18 11:19:52;;;;;;;14.40;4.35;;;16.20;99.90;;;;;;4977755;28;90021;-34
2022/10/18 11:22:19;;;;;;;;;;;16.20;99.90;;;;;;4977124;28;90295;-34
2022/10/18 11:24:45;;;;;;;10.15;2.78;;;16.20;99.90;;;;;;4976427;28;88952;-32
2022/10/18 11:27:33;;;;;;;7.00;3.67;;;16.20;99.90;;;;;;4976076;28;90755;-35
2022/10/18 11:30:09;;;;;;;6.15;2.83;;;16.20;99.90;;;;;;4973969;28;89221;-32
2022/10/18 11:32:48;;;;;;;5.45;2.75;;;16.20;99.90;;;;;;4965166;28;90298;-33
2022/10/18 11:35:31;;;;;;;10.10;3.05;;;16.20;99.90;;;;;;4975809;28;91240;-35
2022/10/18 11:38:26;;;;;;;11.25;2.60;;;16.30;99.90;;;;;;4977138;28;89006;-36
2022/10/18 11:41:15;;;;;;;4.75;2.00;;;16.30;99.90;;;;;;4967247;28;89184;-32
2022/10/18 11:44:10;;;;;;;6.45;2.28;;;16.30;99.90;;;;;;4976334;28;90275;-30
2022/10/18 11:46:54;;;;;;;6.07;2.53;;;16.40;99.90;;;;;;4976383;28;89824;-35
2022/10/18 11:49:49;;;;;;;5.07;2.22;;;16.40;99.90;;;;;;4976719;28;89679;-32
2022/10/18 11:52:52;;;;;;;6.00;2.33;;;16.40;99.90;;;;;;4977162;28;89457;-31
2022/10/18 11:55:35;;;;;;;9.30;2.78;;;16.40;99.90;;;;;;4976161;28;90757;-31
2022/10/18 11:58:31;;;;;;;9.38;2.78;;;16.20;99.90;;;;;;4976420;28;89974;-31
2022/10/18 12:01:39;;;;;;;8.55;2.53;;;16.20;99.90;;;;;;4964481;28;89343;-33
2022/10/18 12:04:16;;;;;;;11.85;2.08;;;16.10;99.90;;;;;;4975700;28;90490;-32
2022/10/18 13:33:26;;;;;;;6.95;2.88;;;16.00;99.90;;;;;;4965055;27;90916;-34
2022/10/18 13:35:58;;;;;;;5.20;2.35;;;16.10;99.90;;;;;;4853532;28;93551;-37
2022/10/18 13:38:38;;;;;;;10.15;2.22;;;16.10;99.90;;;;;;4976077;28;89417;-37
2022/10/18 13:41:07;;;;;;;6.22;2.17;;;16.10;99.90;;;;;;4974912;28;90492;-39
2022/10/18 15:01:32;;;;;;;5.90;1.73;;;15.40;99.90;;;;;;4888451;28;87718;-33
2022/10/18 16:32:04;;;;;;;7.53;3.75;;;13.20;99.90;;;;;;4850395;23;90138;-31
2022/10/18 16:34:31;;;;;;;6.38;2.53;;;13.20;99.90;;;;;;4827763;29;89384;-32
2022/10/18 16:36:56;;;;;;;7.60;2.75;;;13.20;99.90;;;;;;4827883;29;88144;-29
2022/10/18 16:39:23;;;;;;;7.75;3.13;;;13.10;99.90;;;;;;4827329;29;90179;-32
2022/10/18 16:41:50;;;;;;;5.38;2.78;;;13.10;99.90;;;;;;4827368;29;89510;-30
2022/10/18 16:44:17;;;;;;;4.57;2.88;;;13.10;99.90;;;;;;4827189;29;88211;-30
2022/10/18 16:46:44;;;;;;;15.60;4.63;;;13.00;99.90;;;;;;4827695;29;88947;-31
2022/10/18 16:49:23;;;;;;;5.82;2.92;;;13.00;99.90;;;;;;4827679;29;90286;-32
2022/10/18 16:51:50;;;;;;;5.43;2.80;;;13.00;99.90;;;;;;4827903;29;89685;-31
2022/10/18 16:54:16;;;;;;;14.68;4.78;;;12.90;99.90;;;;;;4827609;29;88401;-29
2022/10/18 16:56:41;;;;;;;13.05;4.35;;;12.90;99.90;;;;;;4827343;29;88596;-30
2022/10/18 16:59:19;;;;;;;13.75;4.70;;;12.90;99.90;;;;;;4828347;29;89928;-30
2022/10/18 17:01:44;;;;;;;18.83;4.03;;;12.90;99.90;;;;;;4827467;29;89872;-31
2022/10/18 17:04:10;;;;;;;7.03;3.65;;;12.90;99.90;;;;;;4827122;29;89296;-31